Hauptseite
METAR-TAF:

METAR-TAF

Flughäfen :

Militärflugplatz Ghedi

Brescia Ghedi, Italien

Breite: 45-25N, Länge: 010-17E, Höhe: 102 m

Beobachtung

Neuester Wetterbericht von vor 50 Minuten, um 20:55 UTC
Wind 7 kt aus Ost/Nordost
Temperatur 0°C
Luftfeuchtigkeit 80%
Luftdruck 1018 hPa
Sichtweite 10 km oder mehr
keine Wolken unter 1500 m und keine Kumulonimbus oder Gewitterwolken

METAR: LIPL 122055Z 06007KT CAVOK 00/M03 Q1018 RMK SKC VIS MIN 9999 WIND THR31 05006KT WIND THR13 05005KT BLU

Zeit: 22:45 (21:45 UTC)

Prognose

Neuester Wetterbericht von vor 1 Stunde und 45 Minuten, um 20:00 UTC
Gültige Prognose vom 12 um 21 UTC bis 13 um 06 UTC
Wind 2 kt aus unterschiedlichen Richtungen
Sichtweite 10 km oder mehr
Aufgelockert bewölkt in der Höhe von 6000 ft

TAF: LIPL 122000Z 1221/1306 VRB02KT 9999 SCT060

Wetterbeobachtungen und Prognosen von mehr als 4000 Flughäfen (METAR und TAF Bericht).

Die verfügbaren Stationen werden durch gelbe und rote Markierungen auf der Karte dargestellt.

Führen Sie die Maus auf sie, um den Namen der Station zu sehen.

Darauf klicken, um die Beobachtung von Wetterbeobachtungen und Prognosen zu sehen.

Um die Karte zu ändern : klicken Sie auf den grünen Tasten mit einem schwarzen Kreuz Zum Vergrößern, auf den grünen Button mit einem Gedankenstrich zu verkleinern, oder auf die grünen Pfeile für benachbarte Karten.


METAR-TAF: